createdAt,value
2019-02-20T00:00:11.850Z,49.35
2019-02-20T00:02:40.727Z,49.45
2019-02-20T00:05:09.649Z,49.45
2019-02-20T00:07:38.489Z,49.46
2019-02-20T00:10:07.637Z,49.49
2019-02-20T00:12:36.692Z,50.28
2019-02-20T00:15:06.904Z,49.76
2019-02-20T00:17:35.773Z,49.71
2019-02-20T00:20:06.111Z,50.27
2019-02-20T00:22:40.210Z,50.25
2019-02-20T00:25:07.313Z,50.25
2019-02-20T00:27:36.489Z,51.53
2019-02-20T00:30:07.961Z,50.73
2019-02-20T00:32:36.806Z,50.73
2019-02-20T00:35:06.821Z,49.99
2019-02-20T00:37:35.676Z,49.99
2019-02-20T00:40:06.536Z,50.04
2019-02-20T00:42:35.450Z,50.18
2019-02-20T00:45:06.673Z,50.18
2019-02-20T00:47:37.098Z,50.05
2019-02-20T00:50:07.013Z,50.37
2019-02-20T00:52:49.420Z,49.95
2019-02-20T00:55:11.206Z,49.95
2019-02-20T00:57:40.052Z,50.16
2019-02-20T01:00:12.019Z,50.75
2019-02-20T01:02:40.926Z,50.75
2019-02-20T01:05:09.908Z,51.20
2019-02-20T01:07:38.851Z,51.20
2019-02-20T01:10:08.981Z,50.90
2019-02-20T01:12:37.930Z,50.62
2019-02-20T01:15:09.780Z,50.62
2019-02-20T01:17:38.692Z,51.13
2019-02-20T01:20:09.951Z,51.13
2019-02-20T01:22:38.788Z,51.39
2019-02-20T01:25:07.656Z,51.98
2019-02-20T01:27:36.285Z,51.58
2019-02-20T01:30:07.601Z,51.10
2019-02-20T01:32:36.262Z,51.33
2019-02-20T01:35:05.097Z,51.03
2019-02-20T01:37:33.796Z,50.87
2019-02-20T01:40:02.482Z,51.62
2019-02-20T01:42:31.118Z,51.53
2019-02-20T01:44:59.732Z,51.53
2019-02-20T01:47:28.385Z,51.74
2019-02-20T01:49:57.006Z,51.74
2019-02-20T01:52:25.631Z,51.54
2019-02-20T01:54:54.286Z,51.54
2019-02-20T01:57:22.916Z,51.29
2019-02-20T01:59:51.543Z,51.48
2019-02-20T02:02:20.203Z,51.48
2019-02-20T02:04:48.818Z,51.18
2019-02-20T02:07:17.445Z,50.92
2019-02-20T02:09:46.104Z,51.68
2019-02-20T02:12:14.724Z,52.00
2019-02-20T02:14:43.360Z,51.92
2019-02-20T02:17:12.017Z,51.67
2019-02-20T02:19:40.636Z,51.58
2019-02-20T02:22:09.265Z,51.58
2019-02-20T02:24:37.946Z,50.94
2019-02-20T02:27:06.570Z,50.94
2019-02-20T02:29:35.202Z,51.09
2019-02-20T02:32:03.847Z,51.25
2019-02-20T02:34:32.469Z,51.25
2019-02-20T02:37:01.114Z,51.88
2019-02-20T02:39:29.768Z,51.88
2019-02-20T02:41:58.394Z,51.46
2019-02-20T02:44:27.009Z,51.61
2019-02-20T02:46:55.690Z,51.81
2019-02-20T02:49:24.314Z,51.98
2019-02-20T02:51:52.920Z,51.71
2019-02-20T02:54:21.582Z,51.71
2019-02-20T02:56:50.214Z,52.02
2019-02-20T02:59:18.852Z,52.13
2019-02-20T03:01:47.496Z,52.49
2019-02-20T03:04:16.134Z,52.35
2019-02-20T03:06:44.752Z,52.05
2019-02-20T03:09:13.401Z,51.96
2019-02-20T03:11:42.020Z,51.96
2019-02-20T03:14:10.647Z,51.63
2019-02-20T03:16:39.317Z,51.62
2019-02-20T03:19:07.944Z,52.01
2019-02-20T03:21:36.553Z,51.74
2019-02-20T03:24:05.200Z,51.63
2019-02-20T03:26:33.821Z,51.67
2019-02-20T03:29:02.449Z,51.79
2019-02-20T03:31:31.111Z,52.21
2019-02-20T03:33:59.781Z,52.60
2019-02-20T03:36:28.441Z,52.30
2019-02-20T03:38:57.110Z,52.16
2019-02-20T03:41:25.957Z,53.91
2019-02-20T03:43:54.562Z,53.19
2019-02-20T03:46:23.221Z,52.70
2019-02-20T03:48:51.852Z,53.33
2019-02-20T03:51:20.469Z,52.81
2019-02-20T03:53:51.953Z,52.71
2019-02-20T03:56:19.472Z,52.34
2019-02-20T03:58:48.096Z,51.99
2019-02-20T04:01:16.739Z,52.64
2019-02-20T04:03:45.364Z,53.29
2019-02-20T04:06:13.991Z,53.00
2019-02-20T04:08:42.651Z,52.65
2019-02-20T04:11:11.270Z,52.40
2019-02-20T04:13:39.904Z,52.36
2019-02-20T04:16:08.570Z,52.36
2019-02-20T04:18:37.199Z,52.47
2019-02-20T04:21:05.849Z,52.12
2019-02-20T04:23:34.479Z,52.18
2019-02-20T04:26:03.139Z,52.69
2019-02-20T04:28:31.736Z,52.48
2019-02-20T04:31:00.389Z,52.22
2019-02-20T04:33:29.009Z,52.54
2019-02-20T04:35:57.630Z,52.50
2019-02-20T04:38:26.289Z,52.40
2019-02-20T04:40:54.925Z,52.10
2019-02-20T04:43:23.619Z,52.28
2019-02-20T04:45:52.283Z,52.56
2019-02-20T04:48:20.912Z,54.09
2019-02-20T04:50:49.526Z,56.01
2019-02-20T04:53:18.190Z,55.06
2019-02-20T04:55:46.805Z,54.53
2019-02-20T04:58:20.641Z,53.82
2019-02-20T05:00:49.292Z,53.64
2019-02-20T05:03:17.916Z,53.69
2019-02-20T05:05:46.547Z,53.51
2019-02-20T05:08:15.200Z,53.24
2019-02-20T05:10:43.829Z,53.46
2019-02-20T05:13:12.455Z,53.76
2019-02-20T05:15:41.204Z,53.09
2019-02-20T05:18:09.837Z,53.05
2019-02-20T05:20:38.620Z,52.68
2019-02-20T05:23:07.282Z,52.55
2019-02-20T05:25:35.985Z,52.39
2019-02-20T05:28:04.611Z,52.49
2019-02-20T05:30:33.263Z,52.63
2019-02-20T05:33:01.910Z,54.86
2019-02-20T05:35:30.533Z,57.26
2019-02-20T05:37:59.267Z,54.81
2019-02-20T05:40:27.942Z,53.93
2019-02-20T05:42:56.541Z,53.97
2019-02-20T05:45:25.204Z,53.47
2019-02-20T05:47:53.832Z,53.18
2019-02-20T05:50:22.462Z,53.25
2019-02-20T05:52:51.198Z,53.03
2019-02-20T05:55:19.838Z,52.81
2019-02-20T05:57:48.467Z,52.78
2019-02-20T06:03:47.109Z,52.70
2019-02-20T06:06:15.738Z,52.94
2019-02-20T06:08:44.372Z,52.73
2019-02-20T06:11:15.212Z,52.73
2019-02-20T06:13:43.424Z,52.72
2019-02-20T06:16:12.069Z,52.67
2019-02-20T06:18:40.777Z,52.89
2019-02-20T06:21:09.362Z,52.55
2019-02-20T06:23:37.998Z,52.83
2019-02-20T06:26:06.672Z,52.79
2019-02-20T06:28:35.299Z,52.59
2019-02-20T06:31:03.927Z,56.15
2019-02-20T06:33:33.062Z,55.77
2019-02-20T06:36:01.698Z,60.74
2019-02-20T06:38:30.322Z,59.75
2019-02-20T06:40:59.000Z,55.91
2019-02-20T06:43:27.610Z,54.77
2019-02-20T06:45:56.241Z,53.87
2019-02-20T06:48:24.911Z,53.28
2019-02-20T06:50:53.534Z,53.03
2019-02-20T06:53:22.188Z,52.76
2019-02-20T06:55:50.864Z,52.88
2019-02-20T06:58:19.567Z,55.08
2019-02-20T07:00:48.204Z,53.73
2019-02-20T07:03:16.873Z,52.61
2019-02-20T07:05:45.494Z,52.34
2019-02-20T07:08:35.561Z,52.33
2019-02-20T07:11:09.785Z,52.62
2019-02-20T07:14:02.170Z,51.70
2019-02-20T07:16:49.978Z,51.70
2019-02-20T07:19:21.560Z,52.57
2019-02-20T07:21:58.870Z,51.51
2019-02-20T07:24:33.164Z,52.88
2019-02-20T07:27:07.283Z,52.31
2019-02-20T07:30:00.576Z,51.85
2019-02-20T07:32:29.179Z,51.78
2019-02-20T07:34:57.804Z,51.78
2019-02-20T07:37:26.471Z,51.04
2019-02-20T07:39:55.095Z,51.51
2019-02-20T07:42:23.819Z,51.51
2019-02-20T07:44:52.479Z,53.39
2019-02-20T07:47:21.115Z,51.76
2019-02-20T07:49:49.749Z,53.14
2019-02-20T07:52:18.410Z,53.14
2019-02-20T07:54:47.030Z,53.22
2019-02-20T07:57:15.659Z,52.07
2019-02-20T07:59:44.338Z,51.11
2019-02-20T08:02:12.970Z,51.11
2019-02-20T08:04:41.613Z,52.90
2019-02-20T08:07:10.269Z,51.68
2019-02-20T08:09:38.895Z,50.77
2019-02-20T08:12:07.523Z,50.77
2019-02-20T08:14:36.190Z,50.28
2019-02-20T08:17:04.825Z,50.28
2019-02-20T08:19:33.450Z,49.88
2019-02-20T08:22:02.117Z,49.63
2019-02-20T08:24:30.736Z,49.14
2019-02-20T08:26:59.355Z,49.18
2019-02-20T08:29:28.046Z,49.48
2019-02-20T08:31:56.642Z,49.93
2019-02-20T08:34:25.280Z,49.21
2019-02-20T08:36:53.934Z,49.18
2019-02-20T08:39:22.565Z,49.28
2019-02-20T08:41:51.195Z,49.51
2019-02-20T08:44:19.855Z,49.51
2019-02-20T08:46:48.484Z,49.01
2019-02-20T08:49:17.120Z,48.15
2019-02-20T08:51:45.790Z,48.15
2019-02-20T08:54:14.424Z,49.58
2019-02-20T08:56:43.049Z,50.27
2019-02-20T08:59:11.717Z,49.21
2019-02-20T09:01:40.336Z,49.51
2019-02-20T09:04:08.968Z,47.53
2019-02-20T09:06:37.637Z,47.53
2019-02-20T09:09:06.272Z,47.61
2019-02-20T09:11:34.898Z,47.03
2019-02-20T09:14:03.573Z,46.37
2019-02-20T09:16:32.202Z,45.36
2019-02-20T09:19:00.835Z,45.16
2019-02-20T09:21:29.626Z,45.86
2019-02-20T09:23:58.192Z,43.22
2019-02-20T09:26:26.819Z,42.72
2019-02-20T09:28:56.735Z,41.91
2019-02-20T09:31:25.555Z,41.42
2019-02-20T09:33:54.175Z,40.97
2019-02-20T09:36:22.850Z,40.08
2019-02-20T09:38:51.481Z,37.71
2019-02-20T09:41:20.105Z,37.27
2019-02-20T09:43:48.839Z,37.00
2019-02-20T09:46:17.463Z,39.37
2019-02-20T09:48:46.087Z,39.63
2019-02-20T09:51:14.753Z,40.97
2019-02-20T09:53:43.387Z,40.82
2019-02-20T09:56:12.012Z,39.30
2019-02-20T09:58:40.675Z,36.73
2019-02-20T10:01:09.300Z,37.18
2019-02-20T10:03:37.930Z,35.82
2019-02-20T10:06:06.594Z,34.71
2019-02-20T10:08:35.215Z,35.02
2019-02-20T10:11:03.846Z,34.04
2019-02-20T10:13:32.514Z,34.62
2019-02-20T10:16:01.130Z,34.59
2019-02-20T10:18:29.769Z,33.56
2019-02-20T10:20:58.441Z,34.82
2019-02-20T10:23:27.060Z,34.81
2019-02-20T10:26:00.975Z,34.73
2019-02-20T10:28:26.080Z,34.78
2019-02-20T10:30:54.704Z,34.91
2019-02-20T10:33:23.327Z,34.58
2019-02-20T10:35:51.997Z,33.83
2019-02-20T10:38:20.616Z,34.33
2019-02-20T10:40:49.243Z,34.36
2019-02-20T10:43:17.906Z,34.00
2019-02-20T10:45:46.536Z,34.09
2019-02-20T10:48:15.154Z,33.24
2019-02-20T10:50:43.821Z,32.70
2019-02-20T10:53:12.446Z,32.60
2019-02-20T10:55:41.080Z,33.66
2019-02-20T10:58:09.738Z,33.20
2019-02-20T11:00:38.741Z,32.47
2019-02-20T11:03:07.374Z,32.55
2019-02-20T11:05:36.039Z,32.69
2019-02-20T11:08:04.659Z,32.70
2019-02-20T11:10:33.285Z,32.72
2019-02-20T11:13:02.018Z,31.99
2019-02-20T11:15:30.645Z,31.59
2019-02-20T11:17:59.277Z,32.29
2019-02-20T11:20:27.940Z,31.28
2019-02-20T11:22:56.567Z,30.65
2019-02-20T11:25:25.193Z,31.08
2019-02-20T11:27:53.852Z,31.03
2019-02-20T11:30:25.118Z,31.07
2019-02-20T11:32:53.743Z,30.57
2019-02-20T11:35:22.409Z,30.96
2019-02-20T11:37:51.035Z,29.92
2019-02-20T11:40:19.665Z,29.62
2019-02-20T11:42:48.331Z,29.93
2019-02-20T11:45:20.017Z,28.05
2019-02-20T11:47:48.649Z,28.80
2019-02-20T11:50:17.305Z,28.87
2019-02-20T11:52:45.934Z,28.05
2019-02-20T11:55:15.775Z,26.98
2019-02-20T11:57:44.449Z,27.33
2019-02-20T12:00:15.650Z,27.33
2019-02-20T12:02:44.275Z,27.17
2019-02-20T12:05:13.138Z,26.08
2019-02-20T12:07:41.766Z,27.65
2019-02-20T12:10:12.872Z,28.25
2019-02-20T12:12:41.607Z,28.19
2019-02-20T12:15:10.331Z,28.20
2019-02-20T12:17:38.962Z,28.69
2019-02-20T12:20:08.731Z,29.25
2019-02-20T12:22:37.459Z,28.79
2019-02-20T12:25:07.979Z,28.17
2019-02-20T12:27:36.648Z,28.94
2019-02-20T12:30:07.813Z,28.18
2019-02-20T12:32:36.438Z,27.32
2019-02-20T12:35:06.394Z,28.04
2019-02-20T12:37:35.022Z,29.22
2019-02-20T12:40:05.126Z,28.91
2019-02-20T12:42:33.867Z,28.99
2019-02-20T12:45:02.508Z,28.95
2019-02-20T12:47:31.132Z,29.63
2019-02-20T12:49:59.809Z,28.93
2019-02-20T12:52:28.440Z,28.03
2019-02-20T12:54:57.076Z,28.55
2019-02-20T12:57:25.915Z,29.08
2019-02-20T12:59:54.530Z,29.40
2019-02-20T13:02:23.226Z,29.13
2019-02-20T13:04:51.887Z,28.78
2019-02-20T13:07:20.520Z,28.68
2019-02-20T13:09:50.192Z,28.62
2019-02-20T13:12:18.905Z,28.41
2019-02-20T13:14:47.534Z,29.13
2019-02-20T13:17:16.167Z,29.46
2019-02-20T13:19:44.838Z,29.28
2019-02-20T13:22:13.473Z,28.81
2019-02-20T13:24:43.915Z,29.28
2019-02-20T13:27:12.641Z,29.38
2019-02-20T13:29:41.275Z,29.61
2019-02-20T13:32:09.913Z,28.95
2019-02-20T13:34:38.571Z,29.00
2019-02-20T13:37:07.201Z,29.19
2019-02-20T13:39:35.825Z,28.95
2019-02-20T13:42:04.560Z,28.79
2019-02-20T13:44:33.450Z,28.53
2019-02-20T13:47:02.085Z,28.31
2019-02-20T13:49:30.749Z,28.31
2019-02-20T13:51:59.379Z,29.05
2019-02-20T13:54:28.010Z,29.10
2019-02-20T13:57:01.829Z,28.57
2019-02-20T13:59:27.068Z,28.59
2019-02-20T14:01:55.936Z,28.96
2019-02-20T14:04:24.591Z,28.80
2019-02-20T14:06:53.222Z,28.80
2019-02-20T14:09:21.861Z,29.19
2019-02-20T14:11:50.523Z,30.14
2019-02-20T14:14:19.150Z,30.75
2019-02-20T14:16:47.779Z,29.90
2019-02-20T14:19:16.615Z,30.66
2019-02-20T14:21:45.245Z,31.09
2019-02-20T14:24:13.880Z,30.59
2019-02-20T14:26:42.620Z,30.96
2019-02-20T14:29:11.325Z,32.66
2019-02-20T14:31:39.952Z,32.67
2019-02-20T14:34:08.987Z,32.55
2019-02-20T14:36:37.685Z,33.67
2019-02-20T14:39:06.418Z,33.84
2019-02-20T14:41:35.082Z,33.66
2019-02-20T14:44:03.712Z,34.62
2019-02-20T14:46:32.346Z,34.77
2019-02-20T14:49:01.076Z,34.46
2019-02-20T14:51:30.045Z,33.45
2019-02-20T14:53:58.672Z,34.76
2019-02-20T14:56:27.341Z,33.60
2019-02-20T14:58:55.967Z,34.66
2019-02-20T15:01:24.596Z,35.50
2019-02-20T15:03:53.332Z,35.04
2019-02-20T15:06:21.958Z,35.08
2019-02-20T15:08:50.591Z,35.31
2019-02-20T15:11:19.348Z,36.06
2019-02-20T15:13:48.055Z,36.86
2019-02-20T15:16:16.748Z,36.44
2019-02-20T15:18:45.419Z,36.56
2019-02-20T15:21:14.119Z,36.37
2019-02-20T15:23:43.133Z,36.89
2019-02-20T15:26:11.799Z,37.43
2019-02-20T15:28:40.506Z,36.53
2019-02-20T15:31:09.130Z,37.69
2019-02-20T15:33:37.809Z,38.43
2019-02-20T15:36:06.415Z,38.90
2019-02-20T15:38:35.100Z,38.08
2019-02-20T15:41:04.020Z,38.14
2019-02-20T15:43:32.729Z,37.57
2019-02-20T15:46:01.421Z,37.72
2019-02-20T15:48:30.157Z,36.95
2019-02-20T15:50:58.853Z,37.25
2019-02-20T15:53:27.479Z,38.28
2019-02-20T15:55:56.153Z,39.11
2019-02-20T15:58:24.783Z,38.20
2019-02-20T16:00:53.423Z,37.54
2019-02-20T16:03:22.075Z,37.60
2019-02-20T16:05:50.705Z,37.71
2019-02-20T16:08:19.412Z,38.84
2019-02-20T16:10:48.140Z,38.40
2019-02-20T16:13:17.122Z,38.47
2019-02-20T16:15:45.825Z,38.80
2019-02-20T16:18:14.483Z,38.34
2019-02-20T16:20:43.178Z,38.20
2019-02-20T16:23:11.874Z,37.92
2019-02-20T16:25:40.972Z,39.26
2019-02-20T16:28:09.611Z,39.87
2019-02-20T16:30:38.598Z,38.68
2019-02-20T16:33:07.337Z,38.28
2019-02-20T16:35:35.981Z,39.48
2019-02-20T16:38:04.621Z,40.37
2019-02-20T16:40:33.357Z,40.51
2019-02-20T16:43:03.808Z,39.85
2019-02-20T16:45:32.493Z,40.49
2019-02-20T16:48:01.161Z,40.49
2019-02-20T16:50:29.820Z,39.69
2019-02-20T16:52:58.536Z,40.25
2019-02-20T16:55:27.261Z,40.48
2019-02-20T16:57:56.998Z,40.14
2019-02-20T17:00:25.891Z,40.81
2019-02-20T17:02:57.304Z,39.60
2019-02-20T17:05:26.159Z,40.58
2019-02-20T17:07:54.939Z,41.51
2019-02-20T17:10:23.693Z,40.97
2019-02-20T17:12:52.607Z,42.15
2019-02-20T17:15:21.314Z,42.41
2019-02-20T17:17:50.442Z,42.09
2019-02-20T17:20:20.592Z,41.83
2019-02-20T17:22:49.303Z,41.97
2019-02-20T17:25:18.440Z,42.57
2019-02-20T17:27:47.167Z,42.66
2019-02-20T17:30:17.098Z,42.68
2019-02-20T17:32:46.210Z,42.37
2019-02-20T17:35:17.146Z,41.20
2019-02-20T17:37:46.002Z,40.91
2019-02-20T17:40:15.793Z,41.09
2019-02-20T17:42:44.488Z,41.15
2019-02-20T17:45:17.266Z,42.35
2019-02-20T17:47:46.299Z,41.67
2019-02-20T17:50:25.314Z,41.99
2019-02-20T17:52:53.985Z,41.91
2019-02-20T17:55:22.697Z,42.63
2019-02-20T17:57:51.389Z,43.65
2019-02-20T18:00:22.171Z,44.24
2019-02-20T18:02:50.862Z,43.44
2019-02-20T18:05:19.562Z,43.49
2019-02-20T18:07:51.020Z,43.48
2019-02-20T18:10:18.711Z,43.89
2019-02-20T18:12:47.412Z,42.42
2019-02-20T18:15:16.142Z,42.98
2019-02-20T18:17:44.855Z,42.64
2019-02-20T18:20:13.555Z,45.53
2019-02-20T18:22:43.772Z,44.34
2019-02-20T18:25:13.072Z,43.99
2019-02-20T18:27:41.757Z,44.67
2019-02-20T18:30:15.358Z,42.60
2019-02-20T18:32:44.059Z,43.34
2019-02-20T18:35:17.515Z,43.81
2019-02-20T18:37:46.240Z,44.44
2019-02-20T18:40:18.194Z,43.34
2019-02-20T18:42:46.907Z,44.60
2019-02-20T18:45:16.336Z,44.36
2019-02-20T18:47:45.047Z,44.54
2019-02-20T18:50:15.048Z,45.33
2019-02-20T18:52:43.779Z,44.91
2019-02-20T18:55:13.705Z,43.85
2019-02-20T18:57:42.402Z,43.46
2019-02-20T19:00:16.543Z,43.92
2019-02-20T19:02:45.276Z,44.30
2019-02-20T19:05:14.741Z,43.53
2019-02-20T19:07:43.496Z,43.51
2019-02-20T19:10:21.336Z,44.38
2019-02-20T19:13:07.931Z,43.97
2019-02-20T19:15:51.418Z,43.42
2019-02-20T19:18:25.746Z,44.32
2019-02-20T19:21:12.369Z,44.87
2019-02-20T19:24:00.269Z,45.02
2019-02-20T19:26:48.246Z,45.01
2019-02-20T19:29:39.270Z,45.86
2019-02-20T19:32:33.236Z,46.49
2019-02-20T19:35:22.743Z,46.16
2019-02-20T19:38:10.571Z,45.65
2019-02-20T19:41:15.340Z,45.76
2019-02-20T19:43:47.029Z,43.80
2019-02-20T19:46:41.287Z,44.95
2019-02-20T19:49:27.354Z,43.91
2019-02-20T19:52:19.951Z,44.93
2019-02-20T19:55:03.283Z,45.68
2019-02-20T19:57:40.442Z,45.45
2019-02-20T20:00:24.151Z,45.76
2019-02-20T20:02:58.630Z,45.87
2019-02-20T20:05:36.725Z,46.09
2019-02-20T20:08:29.176Z,46.25
2019-02-20T20:11:06.674Z,46.09
2019-02-20T20:14:11.139Z,47.04
2019-02-20T20:16:59.143Z,45.61
2019-02-20T20:19:50.064Z,45.26
2019-02-20T20:22:33.375Z,44.93
2019-02-20T20:25:26.158Z,45.70
2019-02-20T20:28:18.893Z,47.35
2019-02-20T20:31:05.249Z,47.06
2019-02-20T20:33:54.545Z,47.06
2019-02-20T20:36:41.105Z,47.78
2019-02-20T20:39:18.717Z,45.89
2019-02-20T20:42:05.259Z,48.51
2019-02-20T20:44:36.882Z,47.87
2019-02-20T20:47:11.141Z,46.32
2019-02-20T20:49:45.539Z,46.50
2019-02-20T20:52:38.254Z,46.50
2019-02-20T20:55:27.908Z,46.57
2019-02-20T20:58:21.990Z,46.41
2019-02-20T21:00:59.126Z,46.02
2019-02-20T21:03:30.417Z,45.30
2019-02-20T21:06:13.727Z,45.58
2019-02-20T21:08:45.397Z,45.79
2019-02-20T21:11:19.738Z,44.98
2019-02-20T21:14:00.214Z,45.31
2019-02-20T21:16:51.226Z,44.50
2019-02-20T21:19:43.625Z,45.88
2019-02-20T21:22:30.046Z,45.98
2019-02-20T21:25:19.462Z,45.36
2019-02-20T21:28:13.450Z,45.31
2019-02-20T21:31:20.987Z,45.08
2019-02-20T21:34:01.440Z,45.55
2019-02-20T21:36:33.026Z,44.22
2019-02-20T21:39:23.889Z,43.78
2019-02-20T21:42:07.011Z,44.86
2019-02-20T21:44:47.291Z,43.83
2019-02-20T21:47:27.747Z,43.61
2019-02-20T21:50:22.633Z,44.89
2019-02-20T21:53:21.305Z,44.52
2019-02-20T21:56:01.915Z,45.44
2019-02-20T21:58:39.369Z,44.83
2019-02-20T22:01:35.158Z,45.19
2019-02-20T22:04:12.259Z,45.65
2019-02-20T22:07:01.837Z,45.81
2019-02-20T22:09:41.967Z,45.23
2019-02-20T22:12:19.235Z,46.58
2019-02-20T22:14:53.453Z,44.98
2019-02-20T22:17:39.620Z,45.76
2019-02-20T22:20:11.272Z,45.52
2019-02-20T22:22:57.807Z,46.57
2019-02-20T22:25:45.951Z,45.44
2019-02-20T22:28:23.365Z,45.33
2019-02-20T22:31:00.871Z,45.42
2019-02-20T22:33:50.112Z,46.16
2019-02-20T22:36:24.393Z,46.55
2019-02-20T22:39:15.392Z,46.41
2019-02-20T22:42:21.691Z,45.24
2019-02-20T22:45:11.889Z,45.45
2019-02-20T22:47:52.246Z,45.45
2019-02-20T22:50:35.624Z,44.84
2019-02-20T22:53:09.767Z,46.31
2019-02-20T22:55:58.993Z,45.57
2019-02-20T22:58:36.508Z,45.57
2019-02-20T23:01:17.214Z,46.20
2019-02-20T23:04:03.594Z,45.67
2019-02-20T23:06:53.118Z,45.95
2019-02-20T23:09:27.444Z,45.95
2019-02-20T23:12:18.380Z,45.21
2019-02-20T23:14:58.007Z,44.65
2019-02-20T23:17:27.558Z,46.68
2019-02-20T23:19:56.431Z,46.81
2019-02-20T23:22:25.172Z,46.28
2019-02-20T23:24:53.871Z,47.35
2019-02-20T23:27:22.546Z,47.47
2019-02-20T23:29:51.227Z,47.00
2019-02-20T23:32:19.852Z,47.63
2019-02-20T23:34:48.483Z,46.74
2019-02-20T23:37:17.159Z,47.82
2019-02-20T23:39:45.799Z,47.14
2019-02-20T23:42:14.437Z,46.54
2019-02-20T23:44:43.133Z,47.49
2019-02-20T23:47:11.746Z,47.44
2019-02-20T23:49:40.451Z,46.51
2019-02-20T23:52:09.196Z,46.98
2019-02-20T23:54:37.842Z,46.39
2019-02-20T23:57:06.468Z,46.39
2019-02-20T23:59:35.206Z,47.66
